createdAt,value
2023-05-03T00:01:44.747Z,13.20
2023-05-03T00:04:13.744Z,13.30
2023-05-03T00:06:41.227Z,13.30
2023-05-03T00:09:10.708Z,13.30
2023-05-03T00:11:38.346Z,13.20
2023-05-03T00:14:05.694Z,13.10
2023-05-03T00:16:32.913Z,13.30
2023-05-03T00:19:00.129Z,13.30
2023-05-03T00:21:27.301Z,13.40
2023-05-03T00:23:54.728Z,13.50
2023-05-03T00:26:22.522Z,13.70
2023-05-03T00:28:49.917Z,13.70
2023-05-03T00:31:17.082Z,13.80
2023-05-03T00:33:44.264Z,13.40
2023-05-03T00:36:13.368Z,13.40
2023-05-03T00:38:41.959Z,13.80
2023-05-03T00:41:10.965Z,13.50
2023-05-03T00:43:38.266Z,13.50
2023-05-03T00:46:15.930Z,13.60
2023-05-03T00:48:50.436Z,13.90
2023-05-03T00:51:18.687Z,13.90
2023-05-03T00:53:46.013Z,13.70
2023-05-03T00:56:16.001Z,13.80
2023-05-03T00:58:43.183Z,13.80
2023-05-03T01:01:10.925Z,13.80
2023-05-03T01:03:41.243Z,14.00
2023-05-03T01:06:27.467Z,13.90
2023-05-03T01:09:10.961Z,13.80
2023-05-03T01:12:01.061Z,14.00
2023-05-03T01:14:48.875Z,13.80
2023-05-03T01:17:16.852Z,13.60
2023-05-03T01:19:47.805Z,13.30
2023-05-03T01:22:52.619Z,13.40
2023-05-03T01:25:19.774Z,12.90
2023-05-03T01:27:47.035Z,12.80
2023-05-03T01:37:05.914Z,13.50
2023-05-03T01:39:39.322Z,13.70
2023-05-03T01:42:06.929Z,13.50
2023-05-03T01:44:34.849Z,13.50
2023-05-03T01:47:02.818Z,13.80
2023-05-03T01:49:29.979Z,14.00
2023-05-03T01:51:57.142Z,13.90
2023-05-03T01:54:24.353Z,13.80
2023-05-03T01:56:51.816Z,13.60
2023-05-03T01:59:18.993Z,13.40
2023-05-03T02:01:46.175Z,13.60
2023-05-03T02:04:13.498Z,13.60
2023-05-03T02:06:40.901Z,13.40
2023-05-03T02:09:08.578Z,13.30
2023-05-03T02:11:35.985Z,13.70
2023-05-03T02:14:03.147Z,13.60
2023-05-03T02:16:30.384Z,13.60
2023-05-03T02:18:59.450Z,13.50
2023-05-03T02:21:27.381Z,13.70
2023-05-03T02:23:54.578Z,13.70
2023-05-03T02:26:21.751Z,13.60
2023-05-03T02:28:48.940Z,13.70
2023-05-03T02:31:16.213Z,13.50
2023-05-03T02:33:43.498Z,13.50
2023-05-03T02:36:10.992Z,13.30
2023-05-03T02:38:38.191Z,13.00
2023-05-03T02:41:05.544Z,12.90
2023-05-03T02:43:32.718Z,13.10
2023-05-03T02:45:59.887Z,12.60
2023-05-03T02:48:27.092Z,12.60
2023-05-03T02:50:55.001Z,13.20
2023-05-03T02:53:22.217Z,13.00
2023-05-03T02:55:50.469Z,13.10
2023-05-03T02:58:17.659Z,13.30
2023-05-03T03:00:44.893Z,12.40
2023-05-03T03:03:12.207Z,13.00
2023-05-03T03:05:39.644Z,13.20
2023-05-03T03:08:07.242Z,13.00
2023-05-03T03:10:34.403Z,13.10
2023-05-03T03:13:01.629Z,13.20
2023-05-03T03:15:28.864Z,13.10
2023-05-03T03:17:58.189Z,12.50
2023-05-03T03:20:25.621Z,12.80
2023-05-03T03:22:52.838Z,12.70
2023-05-03T03:25:21.240Z,12.60
2023-05-03T03:27:48.470Z,12.70
2023-05-03T03:30:15.829Z,12.90
2023-05-03T03:32:43.066Z,12.80
2023-05-03T03:35:10.863Z,12.70
2023-05-03T03:37:39.305Z,12.70
2023-05-03T03:40:08.054Z,13.00
2023-05-03T03:42:35.331Z,12.70
2023-05-03T03:45:02.511Z,12.50
2023-05-03T03:47:29.688Z,12.50
2023-05-03T03:49:56.849Z,12.40
2023-05-03T03:52:24.635Z,12.20
2023-05-03T03:54:52.577Z,12.20
2023-05-03T03:57:19.735Z,12.00
2023-05-03T03:59:46.898Z,11.50
2023-05-03T04:02:14.093Z,11.90
2023-05-03T04:04:41.320Z,12.20
2023-05-03T04:07:09.860Z,11.80
2023-05-03T04:09:37.052Z,11.80
2023-05-03T04:12:04.726Z,11.60
2023-05-03T04:14:31.899Z,11.50
2023-05-03T04:16:59.072Z,11.60
2023-05-03T04:19:26.422Z,11.20
2023-05-03T04:21:53.588Z,11.80
2023-05-03T04:24:21.122Z,11.20
2023-05-03T04:26:48.298Z,11.80
2023-05-03T04:29:15.656Z,11.70
2023-05-03T04:31:42.994Z,11.60
2023-05-03T04:34:10.600Z,11.60
2023-05-03T04:36:37.825Z,11.90
2023-05-03T04:39:06.252Z,11.80
2023-05-03T04:41:33.448Z,11.90
2023-05-03T04:44:00.913Z,12.00
2023-05-03T04:46:28.221Z,12.10
2023-05-03T04:48:56.430Z,12.10
2023-05-03T04:51:23.969Z,12.20
2023-05-03T04:53:51.489Z,11.90
2023-05-03T04:56:20.451Z,12.00
2023-05-03T04:58:47.647Z,12.40
2023-05-03T05:01:14.903Z,12.20
2023-05-03T05:03:42.253Z,12.40
2023-05-03T05:06:11.520Z,12.40
2023-05-03T05:08:39.102Z,12.90
2023-05-03T05:11:06.298Z,12.80
2023-05-03T05:13:33.905Z,12.90
2023-05-03T05:16:01.149Z,12.90
2023-05-03T05:18:28.371Z,12.60
2023-05-03T05:20:55.810Z,12.80
2023-05-03T05:23:23.034Z,12.80
2023-05-03T05:25:50.268Z,12.70
2023-05-03T05:28:17.428Z,13.00
2023-05-03T05:30:44.608Z,13.20
2023-05-03T05:33:11.835Z,13.30
2023-05-03T05:35:39.069Z,13.30
2023-05-03T05:38:06.493Z,13.20
2023-05-03T05:40:33.719Z,13.10
2023-05-03T05:43:00.923Z,13.20
2023-05-03T05:45:28.129Z,13.20
2023-05-03T05:47:55.378Z,13.70
2023-05-03T05:50:22.675Z,13.20
2023-05-03T05:52:55.129Z,13.70
2023-05-03T05:55:22.326Z,13.50
2023-05-03T05:57:49.512Z,13.70
2023-05-03T06:00:17.495Z,14.00
2023-05-03T06:02:45.750Z,13.70
2023-05-03T06:05:13.150Z,13.70
2023-05-03T06:07:40.819Z,14.00
2023-05-03T06:10:08.349Z,13.70
2023-05-03T06:12:36.515Z,13.50
2023-05-03T06:15:04.468Z,14.00
2023-05-03T06:17:31.818Z,14.50
2023-05-03T06:19:59.017Z,14.30
2023-05-03T06:22:26.703Z,14.50
2023-05-03T06:24:54.911Z,14.40
2023-05-03T06:27:22.068Z,14.70
2023-05-03T06:29:49.975Z,14.40
2023-05-03T06:32:18.699Z,14.80
2023-05-03T06:34:46.132Z,14.60
2023-05-03T06:37:14.050Z,14.30
2023-05-03T06:39:41.329Z,15.00
2023-05-03T06:42:08.608Z,15.10
2023-05-03T06:44:35.858Z,15.40
2023-05-03T06:47:03.124Z,15.20
2023-05-03T06:49:30.410Z,15.60
2023-05-03T06:51:57.791Z,15.50
2023-05-03T06:54:24.982Z,15.10
2023-05-03T06:56:52.193Z,15.80
2023-05-03T06:59:19.365Z,16.10
2023-05-03T07:01:47.182Z,16.10
2023-05-03T07:04:14.506Z,16.00
2023-05-03T07:06:55.198Z,15.60
2023-05-03T07:09:35.507Z,16.00
2023-05-03T07:12:10.007Z,15.60
2023-05-03T07:14:38.309Z,15.60
2023-05-03T07:17:05.535Z,15.60
2023-05-03T07:19:32.733Z,16.20
2023-05-03T07:21:59.923Z,15.90
2023-05-03T07:24:27.181Z,15.80
2023-05-03T07:26:54.712Z,16.30
2023-05-03T07:29:22.067Z,16.70
2023-05-03T07:31:51.366Z,17.50
2023-05-03T07:34:20.128Z,18.40
2023-05-03T07:36:47.364Z,19.50
2023-05-03T07:39:14.550Z,20.40
2023-05-03T07:41:41.719Z,20.70
2023-05-03T07:44:08.866Z,21.10
2023-05-03T07:46:36.286Z,20.50
2023-05-03T07:49:04.665Z,20.70
2023-05-03T07:51:36.636Z,22.30
2023-05-03T07:54:04.264Z,21.80
2023-05-03T07:56:31.604Z,21.40
2023-05-03T07:59:08.253Z,21.50
2023-05-03T08:01:37.222Z,22.20
2023-05-03T08:04:04.878Z,21.30
2023-05-03T08:06:32.969Z,20.70
2023-05-03T08:09:00.637Z,19.70
2023-05-03T08:11:29.084Z,19.80
2023-05-03T08:13:56.712Z,20.50
2023-05-03T08:16:24.019Z,20.30
2023-05-03T08:18:51.642Z,20.80
2023-05-03T08:21:19.294Z,21.30
2023-05-03T08:23:46.588Z,20.50
2023-05-03T08:26:14.649Z,19.80
2023-05-03T08:28:42.494Z,19.00
2023-05-03T08:31:09.891Z,18.60
2023-05-03T08:33:37.582Z,18.90
2023-05-03T08:36:05.227Z,18.70
2023-05-03T08:38:33.339Z,18.40
2023-05-03T08:41:05.487Z,18.30
2023-05-03T08:43:34.874Z,19.00
2023-05-03T08:46:02.094Z,19.50
2023-05-03T08:48:31.094Z,19.50
2023-05-03T08:50:58.949Z,19.50
2023-05-03T08:53:26.496Z,19.30
2023-05-03T08:55:53.694Z,19.20
2023-05-03T08:58:20.883Z,19.30
2023-05-03T09:00:48.235Z,18.70
2023-05-03T09:03:15.554Z,19.40
2023-05-03T09:05:44.258Z,19.70
2023-05-03T09:08:13.503Z,20.00
2023-05-03T09:10:41.848Z,20.30
2023-05-03T09:13:10.037Z,20.70
2023-05-03T09:15:37.605Z,20.10
2023-05-03T09:18:18.448Z,20.10
2023-05-03T09:20:52.274Z,19.80
2023-05-03T09:23:30.888Z,19.70
2023-05-03T09:25:58.904Z,19.40
2023-05-03T09:28:26.862Z,19.60
2023-05-03T09:31:06.687Z,19.70
2023-05-03T09:33:34.261Z,20.20
2023-05-03T09:36:03.766Z,20.20
2023-05-03T09:38:36.783Z,20.10
2023-05-03T09:41:07.376Z,19.90
2023-05-03T09:43:35.961Z,19.90
2023-05-03T09:46:11.299Z,19.80
2023-05-03T09:48:39.377Z,19.90
2023-05-03T09:51:07.266Z,20.30
2023-05-03T09:53:36.237Z,19.90
2023-05-03T09:56:04.985Z,20.10
2023-05-03T09:58:34.981Z,20.50
2023-05-03T10:01:02.518Z,20.40
2023-05-03T10:03:40.517Z,20.70
2023-05-03T10:06:23.178Z,20.50
2023-05-03T10:08:57.113Z,21.10
2023-05-03T10:11:27.197Z,20.60
2023-05-03T10:13:55.728Z,20.80
2023-05-03T10:16:32.655Z,21.00
2023-05-03T10:19:28.895Z,20.90
2023-05-03T10:22:10.458Z,21.10
2023-05-03T10:25:00.410Z,20.70
2023-05-03T10:27:51.972Z,20.70
2023-05-03T10:30:36.279Z,20.80
2023-05-03T10:33:31.221Z,20.80
2023-05-03T10:36:01.650Z,20.90
2023-05-03T10:38:29.610Z,20.50
2023-05-03T10:40:57.556Z,20.90
2023-05-03T10:43:30.758Z,21.10
2023-05-03T10:46:09.896Z,20.60
2023-05-03T10:48:37.077Z,21.00
2023-05-03T10:51:30.525Z,21.00
2023-05-03T10:53:57.877Z,21.50
2023-05-03T10:56:25.056Z,21.80
2023-05-03T10:58:59.264Z,21.80
2023-05-03T11:01:28.050Z,22.20
2023-05-03T11:04:12.020Z,21.70
2023-05-03T11:06:52.846Z,22.20
2023-05-03T11:09:35.569Z,22.20
2023-05-03T11:12:10.945Z,22.50
2023-05-03T11:14:42.003Z,22.50
2023-05-03T11:17:24.868Z,22.40
2023-05-03T11:20:34.825Z,22.60
2023-05-03T11:23:35.004Z,23.10
2023-05-03T11:26:34.930Z,22.70
2023-05-03T11:29:02.134Z,22.50
2023-05-03T11:31:29.395Z,22.60
2023-05-03T11:33:56.834Z,22.70
2023-05-03T11:36:24.059Z,22.70
2023-05-03T11:38:51.207Z,23.20
2023-05-03T11:41:18.898Z,23.20
2023-05-03T11:43:47.635Z,23.20
2023-05-03T11:46:18.574Z,23.10
2023-05-03T11:48:46.220Z,23.10
2023-05-03T11:51:14.002Z,23.50
2023-05-03T11:53:42.828Z,23.20
2023-05-03T11:56:14.142Z,23.20
2023-05-03T11:59:10.600Z,23.40
2023-05-03T12:01:37.784Z,23.50
2023-05-03T12:04:05.630Z,22.80
2023-05-03T12:06:34.413Z,23.10
2023-05-03T12:09:03.488Z,22.90
2023-05-03T12:11:34.722Z,22.50
2023-05-03T12:14:03.592Z,22.90
2023-05-03T12:16:47.608Z,22.90
2023-05-03T12:19:31.341Z,23.10
2023-05-03T12:22:22.636Z,23.10
2023-05-03T12:24:49.436Z,23.20
2023-05-03T12:27:19.081Z,23.10
2023-05-03T12:30:02.257Z,23.10
2023-05-03T12:32:29.697Z,23.50
2023-05-03T12:34:57.366Z,23.90
2023-05-03T12:37:27.513Z,24.00
2023-05-03T12:40:18.334Z,24.00
2023-05-03T12:42:43.216Z,24.40
2023-05-03T12:45:13.282Z,24.10
2023-05-03T12:47:44.369Z,24.20
2023-05-03T12:50:12.808Z,24.10
2023-05-03T12:52:43.802Z,24.70
2023-05-03T12:55:17.826Z,24.60
2023-05-03T12:57:48.637Z,24.40
2023-05-03T13:00:34.683Z,24.50
2023-05-03T13:05:36.373Z,24.90
2023-05-03T13:10:34.860Z,24.30
2023-05-03T13:13:02.051Z,24.00
2023-05-03T13:15:29.242Z,23.80
2023-05-03T13:17:57.088Z,23.90
2023-05-03T13:20:24.460Z,23.80
2023-05-03T13:22:51.821Z,23.90
2023-05-03T13:25:18.963Z,24.20
2023-05-03T13:27:47.185Z,24.60
2023-05-03T13:30:14.800Z,24.00
2023-05-03T13:32:42.252Z,24.20
2023-05-03T13:35:10.000Z,24.40
2023-05-03T13:37:37.213Z,24.20
2023-05-03T13:40:04.937Z,24.90
2023-05-03T13:42:32.777Z,25.30
2023-05-03T13:44:59.957Z,25.50
2023-05-03T13:47:33.170Z,25.70
2023-05-03T13:50:09.595Z,25.20
2023-05-03T13:52:36.785Z,25.30
2023-05-03T13:55:04.510Z,24.80
2023-05-03T13:57:31.670Z,25.10
2023-05-03T13:59:58.852Z,25.30
2023-05-03T14:02:26.481Z,25.00
2023-05-03T14:04:54.669Z,24.40
2023-05-03T14:07:21.820Z,24.90
2023-05-03T14:09:49.079Z,25.10
2023-05-03T14:12:16.352Z,25.40
2023-05-03T14:14:43.551Z,24.80
2023-05-03T14:17:11.438Z,25.20
2023-05-03T14:19:39.148Z,25.00
2023-05-03T14:22:06.591Z,24.40
2023-05-03T14:24:33.785Z,24.70
2023-05-03T14:27:01.437Z,24.30
2023-05-03T14:29:28.668Z,24.50
2023-05-03T14:31:57.270Z,24.50
2023-05-03T14:34:24.538Z,24.80
2023-05-03T14:36:52.507Z,24.80
2023-05-03T14:39:20.002Z,24.90
2023-05-03T14:41:49.902Z,24.30
2023-05-03T14:44:17.377Z,23.90
2023-05-03T14:46:44.612Z,24.90
2023-05-03T14:49:11.858Z,24.70
2023-05-03T14:51:39.058Z,24.60
2023-05-03T14:54:06.382Z,25.20
2023-05-03T14:56:33.802Z,25.30
2023-05-03T14:59:01.660Z,25.00
2023-05-03T15:01:28.935Z,24.90
2023-05-03T15:03:56.186Z,24.80
2023-05-03T15:06:28.660Z,24.50
2023-05-03T15:08:56.064Z,24.90
2023-05-03T15:11:23.252Z,24.60
2023-05-03T15:13:50.801Z,25.40
2023-05-03T15:16:18.419Z,25.00
2023-05-03T15:18:48.711Z,25.20
2023-05-03T15:21:18.380Z,25.50
2023-05-03T15:23:49.507Z,25.80
2023-05-03T15:26:17.230Z,25.90
2023-05-03T15:28:44.465Z,25.40
2023-05-03T15:31:14.438Z,26.10
2023-05-03T15:33:43.070Z,25.40
2023-05-03T15:36:11.292Z,26.20
2023-05-03T15:38:38.747Z,25.90
2023-05-03T15:41:07.984Z,26.10
2023-05-03T15:43:35.226Z,25.70
2023-05-03T15:46:02.806Z,26.00
2023-05-03T15:48:30.585Z,25.00
2023-05-03T15:50:57.826Z,24.70
2023-05-03T15:53:26.302Z,24.70
2023-05-03T15:55:57.968Z,25.20
2023-05-03T15:58:31.842Z,26.10
2023-05-03T16:00:59.366Z,24.80
2023-05-03T16:03:27.148Z,24.10
2023-05-03T16:05:56.318Z,23.40
2023-05-03T16:08:23.491Z,23.70
2023-05-03T16:10:50.787Z,23.30
2023-05-03T16:13:18.336Z,22.90
2023-05-03T16:15:46.133Z,23.40
2023-05-03T16:18:13.438Z,22.90
2023-05-03T16:20:41.227Z,22.90
2023-05-03T16:23:09.045Z,22.40
2023-05-03T16:25:36.402Z,22.20
2023-05-03T16:28:03.987Z,21.70
2023-05-03T16:30:31.180Z,21.80
2023-05-03T16:32:58.395Z,22.20
2023-05-03T16:35:25.765Z,22.30
2023-05-03T16:37:52.968Z,22.30
2023-05-03T16:40:20.278Z,22.40
2023-05-03T16:42:49.449Z,22.30
2023-05-03T16:45:16.942Z,22.40
2023-05-03T16:47:44.215Z,22.50
2023-05-03T16:50:11.392Z,21.90
2023-05-03T16:52:43.396Z,21.50
2023-05-03T16:55:11.652Z,21.90
2023-05-03T16:57:39.887Z,22.10
2023-05-03T17:00:09.303Z,22.40
2023-05-03T17:02:37.995Z,22.30
2023-05-03T17:05:06.218Z,22.10
2023-05-03T17:07:34.007Z,21.60
2023-05-03T17:10:02.377Z,21.80
2023-05-03T17:12:29.957Z,21.80
2023-05-03T17:14:57.300Z,21.50
2023-05-03T17:17:24.539Z,22.10
2023-05-03T17:19:52.309Z,21.70
2023-05-03T17:22:19.559Z,21.60
2023-05-03T17:24:46.818Z,21.50
2023-05-03T17:27:14.035Z,21.60
2023-05-03T17:29:41.237Z,21.30
2023-05-03T17:32:08.421Z,21.10
2023-05-03T17:34:36.640Z,21.10
2023-05-03T17:37:04.021Z,21.50
2023-05-03T17:39:31.510Z,21.50
2023-05-03T17:41:58.850Z,21.60
2023-05-03T17:44:26.289Z,21.20
2023-05-03T17:46:53.616Z,20.70
2023-05-03T17:49:20.837Z,20.90
2023-05-03T17:51:48.169Z,21.00
2023-05-03T17:54:15.493Z,21.00
2023-05-03T17:56:44.978Z,20.70
2023-05-03T17:59:12.188Z,20.80
2023-05-03T18:01:39.468Z,20.70
2023-05-03T18:04:06.870Z,20.70
2023-05-03T18:06:34.219Z,20.70
2023-05-03T18:09:01.411Z,20.50
2023-05-03T18:11:28.691Z,20.30
2023-05-03T18:13:55.949Z,20.40
2023-05-03T18:16:23.225Z,20.20
2023-05-03T18:18:50.644Z,20.30
2023-05-03T18:21:18.628Z,20.20
2023-05-03T18:23:46.056Z,20.30
2023-05-03T18:26:13.389Z,20.40
2023-05-03T18:28:40.664Z,20.20
2023-05-03T18:31:07.913Z,20.40
2023-05-03T18:33:35.346Z,20.30
2023-05-03T18:36:02.743Z,20.10
2023-05-03T18:38:29.934Z,20.10
2023-05-03T18:40:57.132Z,20.00
2023-05-03T18:43:24.354Z,19.90
2023-05-03T18:45:52.147Z,20.00
2023-05-03T18:48:19.511Z,20.10
2023-05-03T18:50:46.692Z,19.80
2023-05-03T18:53:14.618Z,19.80
2023-05-03T18:55:42.401Z,19.60
2023-05-03T18:58:09.592Z,19.30
2023-05-03T19:00:36.806Z,19.20
2023-05-03T19:03:04.295Z,19.20
2023-05-03T19:05:31.517Z,19.50
2023-05-03T19:07:59.846Z,19.00
2023-05-03T19:10:27.160Z,19.10
2023-05-03T19:12:54.492Z,19.20
2023-05-03T19:15:21.787Z,19.20
2023-05-03T19:17:49.059Z,19.00
2023-05-03T19:20:17.284Z,18.90
2023-05-03T19:22:44.484Z,19.10
2023-05-03T19:25:11.797Z,19.00
2023-05-03T19:27:39.039Z,18.90
2023-05-03T19:30:07.327Z,18.80
2023-05-03T19:32:38.785Z,19.10
2023-05-03T19:35:09.141Z,19.00
2023-05-03T19:37:36.471Z,18.80
2023-05-03T19:40:04.283Z,18.80
2023-05-03T19:42:31.761Z,19.10
2023-05-03T19:44:59.837Z,18.80
2023-05-03T19:47:27.192Z,18.80
2023-05-03T19:49:54.542Z,18.80
2023-05-03T19:52:21.736Z,19.00
2023-05-03T19:54:48.926Z,18.80
2023-05-03T19:57:16.133Z,18.30
2023-05-03T19:59:43.301Z,18.10
2023-05-03T20:02:10.529Z,18.60
2023-05-03T20:04:37.706Z,18.20
2023-05-03T20:07:04.958Z,18.20
2023-05-03T20:09:32.145Z,17.70
2023-05-03T20:11:59.338Z,18.00
2023-05-03T20:14:27.508Z,17.90
2023-05-03T20:16:56.946Z,18.20
2023-05-03T20:19:25.160Z,18.20
2023-05-03T20:21:52.714Z,18.10
2023-05-03T20:24:21.032Z,17.70
2023-05-03T20:26:48.597Z,17.40
2023-05-03T20:29:16.042Z,17.80
2023-05-03T20:31:44.329Z,17.30
2023-05-03T20:34:12.621Z,17.30
2023-05-03T20:36:39.841Z,17.80
2023-05-03T20:39:07.071Z,17.60
2023-05-03T20:41:34.306Z,17.80
2023-05-03T20:44:01.584Z,17.40
2023-05-03T20:46:28.776Z,17.60
2023-05-03T20:48:56.173Z,17.50
2023-05-03T20:51:23.496Z,17.50
2023-05-03T20:53:50.712Z,17.60
2023-05-03T20:56:18.003Z,17.70
2023-05-03T20:58:45.664Z,17.80
2023-05-03T21:01:14.326Z,18.00
2023-05-03T21:03:41.682Z,18.00
2023-05-03T21:06:08.930Z,17.60
2023-05-03T21:08:36.340Z,17.60
2023-05-03T21:11:04.177Z,17.70
2023-05-03T21:13:31.530Z,17.60
2023-05-03T21:15:58.743Z,17.40
2023-05-03T21:18:26.429Z,17.50
2023-05-03T21:20:54.394Z,17.50
2023-05-03T21:23:21.638Z,17.30
2023-05-03T21:25:48.823Z,17.00
2023-05-03T21:28:16.309Z,17.00
2023-05-03T21:30:43.971Z,16.80
2023-05-03T21:33:11.685Z,16.80
2023-05-03T21:35:38.917Z,16.70
2023-05-03T21:38:06.504Z,16.80
2023-05-03T21:40:33.727Z,16.70
2023-05-03T21:43:00.976Z,16.80
2023-05-03T21:45:28.178Z,17.10
2023-05-03T21:47:55.511Z,17.20
2023-05-03T21:50:23.616Z,17.10
2023-05-03T21:52:51.054Z,17.00
2023-05-03T21:55:18.546Z,16.90
2023-05-03T21:57:46.060Z,17.10
2023-05-03T22:00:15.100Z,16.90
2023-05-03T22:02:42.832Z,16.90
2023-05-03T22:05:10.309Z,16.80
2023-05-03T22:07:37.490Z,16.50
2023-05-03T22:10:05.271Z,16.40
2023-05-03T22:12:33.489Z,16.60
2023-05-03T22:15:02.144Z,16.60
2023-05-03T22:17:29.443Z,16.20
2023-05-03T22:19:56.794Z,16.20
2023-05-03T22:22:24.016Z,16.00
2023-05-03T22:24:51.288Z,16.60
2023-05-03T22:27:18.668Z,16.60
2023-05-03T22:29:45.865Z,16.60
2023-05-03T22:32:13.158Z,16.60
2023-05-03T22:34:40.365Z,17.00
2023-05-03T22:37:07.529Z,16.80
2023-05-03T22:39:34.683Z,16.80
2023-05-03T22:42:01.874Z,17.10
2023-05-03T22:44:29.059Z,17.00
2023-05-03T22:46:56.242Z,16.80
2023-05-03T22:49:23.558Z,16.50
2023-05-03T22:51:51.510Z,17.00
2023-05-03T22:54:18.693Z,16.80
2023-05-03T22:56:45.849Z,17.10
2023-05-03T22:59:12.998Z,17.00
2023-05-03T23:01:40.246Z,17.10
2023-05-03T23:04:07.540Z,17.10
2023-05-03T23:06:34.701Z,17.30
2023-05-03T23:09:02.057Z,17.10
2023-05-03T23:11:29.420Z,17.40
2023-05-03T23:13:56.912Z,17.20
2023-05-03T23:16:24.531Z,17.30
2023-05-03T23:18:53.515Z,17.20
2023-05-03T23:21:22.053Z,17.30
2023-05-03T23:23:49.301Z,17.40
2023-05-03T23:26:16.498Z,17.30
2023-05-03T23:28:44.098Z,17.30
2023-05-03T23:31:11.751Z,17.40
2023-05-03T23:33:39.437Z,17.20
2023-05-03T23:36:07.136Z,17.20
2023-05-03T23:38:34.313Z,17.30
2023-05-03T23:41:01.515Z,17.50
2023-05-03T23:43:28.686Z,17.90
2023-05-03T23:45:55.971Z,17.70
2023-05-03T23:48:23.189Z,17.80
2023-05-03T23:50:50.414Z,17.50
2023-05-03T23:53:17.591Z,17.60
2023-05-03T23:55:44.798Z,17.50
2023-05-03T23:58:11.968Z,17.60
